Krimpen aan den IJssel, Netherlands
Current Conditions -  °F | °C
As of 1:25 PM on Tuesday 27 Jan 2015 (Local Time) from EHRD Reporting Station
Overcast Overcast  
Wind Chill: 40°   Ceiling: 2200
Heat Index: 46°   Visibility: 6mi
Dew Point: 39°   Wind: 15mph
Humidity: 76%   Direction: 300°WNW
Pressure: 30.24"   Gusts: NA
Location:  51.92°N, 4.6°E
Report Text: EHRD 271225Z AUTO 30013KT 270V330 9999 SCT015 BKN022 OVC02808/04 Q1024 NOSIG
Loading
Personal Weather Stations






























Interactive Weather Map New forecast layout! Learn more

10-Day Weather Forecast

Advertisements
Track Severe Weather on mobile